Time;durP1;ratioP1;P1;durP2;ratioP2;P2;SDS_P1;SDS_P2;PMS_P1;PMS_P2;Temp;Humidity;BMP_temperature;BMP_pressure;BME280_temperature;BME280_humidity;BME280_pressure;Samples;Min_cycle;Max_cycle;Signal;HPM_P1;HPM_P2
2022/06/08 00:01:04;;;;;;;1.20;1.07;;;15.10;98.00;;;;;;5034145;28;20953;-68
2022/06/08 00:03:34;;;;;;;1.70;1.30;;;15.20;98.00;;;;;;5032855;28;20556;-68
2022/06/08 00:06:03;;;;;;;1.80;1.30;;;15.10;98.00;;;;;;5034131;28;20482;-68
2022/06/08 00:08:32;;;;;;;1.30;1.10;;;15.00;98.00;;;;;;5032697;28;20541;-68
2022/06/08 00:10:59;;;;;;;1.30;1.10;;;15.00;98.00;;;;;;5032791;28;20457;-68
2022/06/08 00:13:27;;;;;;;1.30;1.00;;;14.80;98.00;;;;;;5033950;28;20486;-68
2022/06/08 00:15:54;;;;;;;1.20;1.20;;;14.70;98.00;;;;;;5034042;28;20901;-68
2022/06/08 00:18:22;;;;;;;1.47;1.23;;;14.80;98.00;;;;;;5034159;28;20447;-68
2022/06/08 00:20:49;;;;;;;1.90;1.20;;;14.80;98.00;;;;;;5033828;28;20464;-68
2022/06/08 00:23:17;;;;;;;1.20;1.20;;;14.70;98.00;;;;;;5033854;28;20462;-68
2022/06/08 00:25:46;;;;;;;1.20;1.00;;;14.70;98.00;;;;;;5033837;28;20545;-68
2022/06/08 00:28:14;;;;;;;1.20;1.13;;;14.80;98.00;;;;;;5034003;28;20455;-68
2022/06/08 00:30:42;;;;;;;1.50;1.17;;;14.80;98.00;;;;;;5033682;28;20987;-68
2022/06/08 00:33:09;;;;;;;1.20;1.10;;;14.70;98.00;;;;;;5033488;28;20486;-68
2022/06/08 00:35:37;;;;;;;1.20;1.17;;;14.70;98.00;;;;;;5033581;28;20474;-68
2022/06/08 00:38:04;;;;;;;1.40;1.00;;;14.70;98.00;;;;;;5032972;28;20466;-68
2022/06/08 00:40:39;;;;;;;1.30;1.20;;;14.70;98.00;;;;;;5032885;28;20468;-68
2022/06/08 00:43:09;;;;;;;1.20;1.10;;;14.70;98.00;;;;;;5032194;28;20454;-68
2022/06/08 00:45:39;;;;;;;1.40;1.20;;;14.50;98.00;;;;;;5033233;28;20929;-68
2022/06/08 00:48:07;;;;;;;1.97;1.30;;;14.40;98.00;;;;;;5033327;28;20457;-68
2022/06/08 00:50:39;;;;;;;1.20;1.10;;;14.60;98.00;;;;;;5033470;28;20458;-68
2022/06/08 00:53:08;;;;;;;1.20;1.03;;;14.50;98.00;;;;;;5033077;28;20497;-68
2022/06/08 00:55:39;;;;;;;1.70;1.13;;;14.60;98.00;;;;;;5032074;28;20544;-68
2022/06/08 00:58:12;;;;;;;1.30;1.03;;;14.60;98.00;;;;;;5031939;28;20458;-68
2022/06/08 01:00:41;;;;;;;1.40;1.30;;;14.50;98.00;;;;;;5032982;28;20471;-68
2022/06/08 01:03:10;;;;;;;1.40;1.20;;;14.50;98.00;;;;;;5033014;28;20469;-68
2022/06/08 01:05:42;;;;;;;2.30;1.30;;;14.60;98.00;;;;;;5032924;28;20463;-68
2022/06/08 01:08:28;;;;;;;1.20;1.07;;;14.80;98.00;;;;;;5032916;28;20462;-68
2022/06/08 01:10:58;;;;;;;1.20;1.03;;;14.60;98.00;;;;;;5032822;28;20462;-68
2022/06/08 01:13:29;;;;;;;1.30;1.13;;;14.50;98.00;;;;;;5032886;28;20489;-68
2022/06/08 01:15:56;;;;;;;1.60;1.47;;;14.60;98.00;;;;;;5032761;28;20452;-68
2022/06/08 01:18:23;;;;;;;1.57;1.20;;;14.70;98.00;;;;;;5032826;28;20523;-68
2022/06/08 01:20:53;;;;;;;1.57;1.23;;;14.60;98.00;;;;;;5032814;28;20462;-68
2022/06/08 01:23:22;;;;;;;1.70;1.50;;;14.60;98.00;;;;;;5032734;28;20462;-68
2022/06/08 01:26:04;;;;;;;1.40;1.30;;;14.60;98.00;;;;;;5032669;28;20462;-68
2022/06/08 01:28:37;;;;;;;1.73;1.53;;;14.50;98.00;;;;;;5032375;28;20468;-68
2022/06/08 01:31:13;;;;;;;1.20;1.10;;;14.60;98.00;;;;;;5031278;28;20524;-68
2022/06/08 01:33:57;;;;;;;1.20;1.13;;;14.50;98.00;;;;;;5031313;28;20487;-68
2022/06/08 01:36:43;;;;;;;2.97;1.70;;;14.50;98.00;;;;;;5032367;28;20815;-68
2022/06/08 01:39:22;;;;;;;1.40;1.40;;;14.60;98.00;;;;;;5032072;28;20465;-68
2022/06/08 01:42:13;;;;;;;1.20;1.07;;;14.80;98.00;;;;;;5032302;28;20458;-67
2022/06/08 01:48:02;;;;;;;1.20;1.00;;;14.80;98.00;;;;;;5032264;28;20448;-67
2022/06/08 01:50:38;;;;;;;1.50;1.30;;;14.70;98.00;;;;;;5032270;28;20479;-67
2022/06/08 01:53:12;;;;;;;1.40;1.13;;;14.80;98.00;;;;;;5030567;28;20485;-68
2022/06/08 01:55:56;;;;;;;1.57;1.27;;;14.80;98.00;;;;;;5032145;28;20970;-68
2022/06/08 01:58:27;;;;;;;1.57;1.50;;;14.80;98.00;;;;;;5031895;28;20458;-68
2022/06/08 02:01:02;;;;;;;1.50;1.30;;;14.60;98.00;;;;;;5031352;28;20469;-68
2022/06/08 02:03:37;;;;;;;1.60;1.40;;;14.80;98.00;;;;;;5031237;28;20465;-68
2022/06/08 02:06:09;;;;;;;1.30;1.27;;;14.70;98.00;;;;;;5031306;28;20454;-68
2022/06/08 02:08:41;;;;;;;1.47;1.30;;;14.70;98.00;;;;;;5031261;28;20461;-68
2022/06/08 02:11:17;;;;;;;1.93;1.40;;;14.70;98.00;;;;;;5031237;28;20948;-68
2022/06/08 02:13:50;;;;;;;1.30;1.27;;;14.60;98.00;;;;;;5031588;28;20839;-68
2022/06/08 02:16:22;;;;;;;1.50;1.03;;;14.50;98.00;;;;;;5032049;28;20458;-68
2022/06/08 02:18:56;;;;;;;1.53;1.20;;;14.50;98.00;;;;;;5031928;28;20985;-67
2022/06/08 02:21:29;;;;;;;1.50;1.10;;;14.40;98.00;;;;;;5032254;28;20462;-68
2022/06/08 02:24:00;;;;;;;1.70;1.20;;;14.30;98.00;;;;;;5032088;28;20811;-68
2022/06/08 02:26:32;;;;;;;1.30;1.10;;;14.40;98.00;;;;;;5032080;28;20453;-68
2022/06/08 02:29:06;;;;;;;1.60;1.37;;;14.50;98.00;;;;;;5031522;28;20480;-68
2022/06/08 02:31:38;;;;;;;1.27;1.20;;;14.50;98.00;;;;;;5031923;28;20458;-68
2022/06/08 02:34:31;;;;;;;2.40;1.37;;;14.50;98.00;;;;;;5031476;28;21198;-68
2022/06/08 02:37:07;;;;;;;1.27;1.20;;;14.50;98.00;;;;;;5031682;28;20467;-68
2022/06/08 02:39:39;;;;;;;1.40;1.10;;;14.60;98.00;;;;;;5031550;28;20830;-68
2022/06/08 02:42:11;;;;;;;1.40;1.20;;;14.70;98.00;;;;;;5031669;28;20454;-68
2022/06/08 02:44:41;;;;;;;1.40;1.20;;;14.70;98.00;;;;;;5031535;28;20451;-68
2022/06/08 02:47:15;;;;;;;1.93;1.40;;;14.60;98.00;;;;;;5031781;28;20816;-68
2022/06/08 02:49:43;;;;;;;1.40;1.20;;;14.60;98.00;;;;;;5031462;28;20501;-68
2022/06/08 02:52:17;;;;;;;1.40;1.40;;;14.70;98.00;;;;;;5031787;28;20469;-68
2022/06/08 02:54:45;;;;;;;1.30;1.20;;;14.60;98.00;;;;;;5030265;28;20494;-68
2022/06/08 02:57:22;;;;;;;1.23;1.17;;;14.70;98.00;;;;;;5031755;28;20466;-68
2022/06/08 02:59:53;;;;;;;1.50;1.30;;;14.60;98.00;;;;;;5031511;28;20523;-68
2022/06/08 03:02:27;;;;;;;1.30;1.17;;;14.50;98.00;;;;;;5031566;28;20461;-68
2022/06/08 03:05:00;;;;;;;1.20;1.00;;;14.50;98.00;;;;;;5033572;28;20450;-68
2022/06/08 03:07:32;;;;;;;1.63;1.30;;;14.30;98.00;;;;;;5035473;28;20473;-67
2022/06/08 03:10:04;;;;;;;1.20;1.13;;;14.30;98.00;;;;;;5035259;28;20512;-67
2022/06/08 03:12:37;;;;;;;1.20;1.13;;;14.20;98.00;;;;;;5035359;28;20465;-68
2022/06/08 03:15:06;;;;;;;1.37;1.10;;;14.10;98.00;;;;;;5033954;28;20911;-68
2022/06/08 03:17:35;;;;;;;1.30;1.20;;;14.10;98.00;;;;;;5035263;28;20818;-68
2022/06/08 03:20:04;;;;;;;2.40;1.57;;;14.10;98.00;;;;;;5035303;28;20926;-68
2022/06/08 03:22:31;;;;;;;1.20;1.00;;;14.00;98.00;;;;;;5035164;28;20463;-68
2022/06/08 03:24:58;;;;;;;2.07;1.30;;;13.90;98.00;;;;;;5034594;28;20969;-68
2022/06/08 03:27:26;;;;;;;1.40;1.20;;;13.80;98.00;;;;;;5034501;28;20514;-68
2022/06/08 03:29:57;;;;;;;1.20;1.10;;;13.70;98.00;;;;;;5034691;28;20470;-68
2022/06/08 03:32:24;;;;;;;1.97;1.33;;;13.70;98.00;;;;;;5034609;28;20469;-68
2022/06/08 03:34:51;;;;;;;2.10;1.50;;;13.70;98.00;;;;;;5034455;28;20508;-68
2022/06/08 03:37:18;;;;;;;1.30;1.10;;;13.80;98.00;;;;;;5034633;28;20465;-68
2022/06/08 03:39:45;;;;;;;1.60;1.40;;;14.00;98.00;;;;;;5034498;28;20820;-68
2022/06/08 03:42:12;;;;;;;1.40;1.20;;;14.00;98.00;;;;;;5034703;28;20492;-67
2022/06/08 03:44:40;;;;;;;1.33;1.20;;;14.00;98.00;;;;;;5034388;28;20449;-68
2022/06/08 03:47:13;;;;;;;1.20;1.00;;;13.90;98.00;;;;;;5034403;28;20461;-68
2022/06/08 03:49:40;;;;;;;1.30;1.10;;;13.80;98.00;;;;;;5034293;28;20468;-68
2022/06/08 03:52:12;;;;;;;1.47;1.30;;;13.90;98.00;;;;;;5034296;28;20468;-68
2022/06/08 03:54:43;;;;;;;1.20;1.10;;;13.90;98.00;;;;;;5034260;28;20504;-68
2022/06/08 03:57:14;;;;;;;1.40;1.30;;;14.00;98.00;;;;;;5034519;28;20461;-68
2022/06/08 03:59:43;;;;;;;3.43;1.57;;;14.00;98.00;;;;;;5034265;28;20467;-68
2022/06/08 04:02:12;;;;;;;1.50;1.40;;;13.90;98.00;;;;;;5034020;28;20955;-68
2022/06/08 04:04:40;;;;;;;2.33;1.40;;;13.90;98.00;;;;;;5034194;28;20523;-68
2022/06/08 04:07:08;;;;;;;1.40;1.30;;;14.10;98.00;;;;;;5034287;28;20456;-67
2022/06/08 04:09:36;;;;;;;1.40;1.10;;;14.00;98.00;;;;;;5033851;28;20460;-68
2022/06/08 04:12:04;;;;;;;2.17;1.43;;;14.10;98.00;;;;;;5034212;28;20519;-68
2022/06/08 04:14:32;;;;;;;1.70;1.47;;;14.20;98.00;;;;;;5033563;28;20486;-68
2022/06/08 04:16:59;;;;;;;1.30;1.20;;;14.30;98.00;;;;;;5034356;28;20464;-68
2022/06/08 04:19:27;;;;;;;1.33;1.27;;;14.30;98.00;;;;;;5033947;28;20480;-68
2022/06/08 04:21:56;;;;;;;1.60;1.30;;;14.20;98.00;;;;;;5034162;28;20450;-68
2022/06/08 04:24:24;;;;;;;1.80;1.50;;;14.10;98.00;;;;;;5033528;28;20458;-68
2022/06/08 04:26:52;;;;;;;1.20;1.00;;;14.20;98.00;;;;;;5033663;28;20457;-68
2022/06/08 04:29:20;;;;;;;1.40;1.20;;;14.30;98.00;;;;;;5033257;28;20474;-68
2022/06/08 04:31:48;;;;;;;1.20;1.20;;;14.30;98.00;;;;;;5033418;28;20469;-68
2022/06/08 04:34:16;;;;;;;1.70;1.37;;;14.30;98.00;;;;;;5033466;28;20491;-68
2022/06/08 04:36:46;;;;;;;1.30;1.20;;;14.40;98.00;;;;;;5033364;28;20472;-68
2022/06/08 04:39:15;;;;;;;1.30;1.10;;;14.40;98.00;;;;;;5033454;28;20462;-68
2022/06/08 04:41:43;;;;;;;1.47;1.27;;;14.40;98.00;;;;;;5033254;28;20473;-68
2022/06/08 04:44:10;;;;;;;1.20;1.20;;;14.60;98.00;;;;;;5033252;28;20464;-68
2022/06/08 04:46:38;;;;;;;1.33;1.27;;;14.70;98.00;;;;;;5033201;28;20467;-68
2022/06/08 04:49:05;;;;;;;1.30;1.23;;;14.80;98.00;;;;;;5033191;28;20532;-68
2022/06/08 04:51:33;;;;;;;1.60;1.40;;;14.80;98.00;;;;;;5033069;28;20468;-68
2022/06/08 04:54:02;;;;;;;1.50;1.40;;;15.00;98.00;;;;;;5033080;28;20484;-68
2022/06/08 04:56:29;;;;;;;1.20;1.10;;;15.20;98.00;;;;;;5033307;28;20458;-68
2022/06/08 04:58:56;;;;;;;1.70;1.40;;;15.30;98.00;;;;;;5033013;28;20808;-68
2022/06/08 05:01:24;;;;;;;1.20;1.03;;;15.40;98.00;;;;;;5033191;28;20455;-68
2022/06/08 05:03:52;;;;;;;2.70;1.27;;;15.50;98.00;;;;;;5033093;28;20472;-68
2022/06/08 05:06:20;;;;;;;1.30;1.20;;;15.50;98.00;;;;;;5033070;28;20461;-68
2022/06/08 05:08:47;;;;;;;1.30;1.27;;;15.50;98.00;;;;;;5033027;28;20509;-69
2022/06/08 05:11:26;;;;;;;1.20;1.20;;;15.40;98.00;;;;;;5033032;28;20458;-68
2022/06/08 05:13:53;;;;;;;1.90;1.40;;;15.50;98.00;;;;;;5031776;28;20481;-68
2022/06/08 05:16:20;;;;;;;1.30;1.10;;;15.40;98.00;;;;;;5033115;28;20461;-69
2022/06/08 05:18:48;;;;;;;1.43;1.40;;;15.20;98.00;;;;;;5032701;28;20454;-68
2022/06/08 05:21:15;;;;;;;3.10;1.57;;;15.10;98.00;;;;;;5033026;28;20488;-68
2022/06/08 05:23:43;;;;;;;1.90;1.43;;;15.20;98.00;;;;;;5032441;28;20459;-68
2022/06/08 05:26:12;;;;;;;1.30;1.23;;;15.40;98.00;;;;;;5032321;28;20462;-68
2022/06/08 05:28:41;;;;;;;1.50;1.23;;;15.60;98.00;;;;;;5031984;28;20476;-69
2022/06/08 05:31:09;;;;;;;2.03;1.30;;;15.60;98.00;;;;;;5032479;28;20565;-68
2022/06/08 05:33:37;;;;;;;1.60;1.40;;;15.50;98.00;;;;;;5032290;28;20457;-68
2022/06/08 05:36:05;;;;;;;1.50;1.30;;;15.40;98.00;;;;;;5032373;28;20461;-68
2022/06/08 05:38:32;;;;;;;2.23;1.20;;;15.40;98.00;;;;;;5032466;28;20458;-68
2022/06/08 05:40:59;;;;;;;1.30;1.23;;;15.40;98.00;;;;;;5032155;28;20465;-68
2022/06/08 05:43:26;;;;;;;3.10;1.97;;;15.40;98.00;;;;;;5031254;28;20463;-68
2022/06/08 05:45:55;;;;;;;1.47;1.40;;;15.50;98.00;;;;;;5032309;28;20546;-68
2022/06/08 05:48:22;;;;;;;1.33;1.30;;;15.40;98.00;;;;;;5031912;28;20949;-68
2022/06/08 05:50:50;;;;;;;2.53;1.30;;;15.50;98.00;;;;;;5032133;28;20454;-68
2022/06/08 05:53:20;;;;;;;1.67;1.40;;;15.50;98.00;;;;;;5030961;28;20454;-68
2022/06/08 05:55:47;;;;;;;1.63;1.30;;;15.50;98.00;;;;;;5032014;28;21078;-68
2022/06/08 05:58:14;;;;;;;1.40;1.30;;;15.50;98.00;;;;;;5032058;28;21085;-68
2022/06/08 06:00:42;;;;;;;2.33;1.90;;;15.60;98.00;;;;;;5032042;28;20466;-69
2022/06/08 06:03:11;;;;;;;1.30;1.30;;;15.70;98.00;;;;;;5032048;28;20462;-69
2022/06/08 06:05:41;;;;;;;1.40;1.30;;;15.80;98.00;;;;;;5031974;28;20458;-69
2022/06/08 06:08:09;;;;;;;1.70;1.23;;;16.10;98.00;;;;;;5032184;28;20463;-68
2022/06/08 06:10:38;;;;;;;1.47;1.27;;;16.40;98.00;;;;;;5030746;28;20468;-68
2022/06/08 06:13:06;;;;;;;1.20;1.20;;;16.50;98.00;;;;;;5032241;28;20459;-68
2022/06/08 06:15:34;;;;;;;3.87;1.97;;;16.50;98.00;;;;;;5032118;28;20509;-68
2022/06/08 06:18:01;;;;;;;1.60;1.50;;;16.50;98.00;;;;;;5032064;28;20835;-68
2022/06/08 06:20:31;;;;;;;1.57;1.23;;;16.60;98.00;;;;;;5031948;28;20871;-69
2022/06/08 06:22:58;;;;;;;1.40;1.27;;;16.50;98.00;;;;;;5031878;28;20461;-69
2022/06/08 06:25:27;;;;;;;1.30;1.23;;;16.60;98.00;;;;;;5031666;28;20466;-69
2022/06/08 06:27:55;;;;;;;1.20;1.13;;;16.70;98.00;;;;;;5031377;28;20481;-70
2022/06/08 06:30:22;;;;;;;1.97;1.60;;;16.80;98.00;;;;;;5031869;28;20458;-70
2022/06/08 06:32:49;;;;;;;1.40;1.27;;;16.90;98.00;;;;;;5031627;28;20451;-70
2022/06/08 06:35:21;;;;;;;1.53;1.33;;;16.90;98.00;;;;;;5031702;28;20482;-69
2022/06/08 06:37:50;;;;;;;1.60;1.33;;;17.00;98.00;;;;;;5032256;28;20476;-70
2022/06/08 06:40:18;;;;;;;1.70;1.60;;;17.20;98.00;;;;;;5035635;28;20458;-70
2022/06/08 06:42:46;;;;;;;1.50;1.20;;;17.30;98.00;;;;;;5035726;28;20450;-69
2022/06/08 06:45:15;;;;;;;1.60;1.30;;;17.50;98.00;;;;;;5035487;28;20459;-70
2022/06/08 06:47:42;;;;;;;2.47;1.40;;;17.70;98.00;;;;;;5035402;28;20455;-71
2022/06/08 06:50:13;;;;;;;1.63;1.40;;;17.80;98.00;;;;;;5035298;28;20454;-71
2022/06/08 06:52:40;;;;;;;1.40;1.20;;;18.00;98.00;;;;;;5034544;28;20809;-70
2022/06/08 06:55:17;;;;;;;1.57;1.30;;;18.00;98.00;;;;;;5035129;28;20486;-70
2022/06/08 06:57:44;;;;;;;1.97;1.33;;;18.10;98.00;;;;;;5035248;28;20462;-70
2022/06/08 07:00:13;;;;;;;1.40;1.30;;;18.30;98.00;;;;;;5035220;28;20454;-70
2022/06/08 07:02:40;;;;;;;1.60;1.43;;;18.30;98.00;;;;;;5035462;28;21003;-71
2022/06/08 07:05:10;;;;;;;1.37;1.30;;;18.30;98.00;;;;;;5035137;28;20512;-70
2022/06/08 07:07:37;;;;;;;1.70;1.40;;;18.40;98.00;;;;;;5035364;28;20455;-70
2022/06/08 07:10:05;;;;;;;5.23;1.50;;;18.50;98.00;;;;;;5035091;28;20469;-70
2022/06/08 07:12:33;;;;;;;1.83;1.30;;;18.60;98.00;;;;;;5035375;28;20468;-69
2022/06/08 07:15:01;;;;;;;1.67;1.23;;;18.70;98.00;;;;;;5035178;28;20493;-69
2022/06/08 07:17:28;;;;;;;1.50;1.30;;;18.60;98.00;;;;;;5035026;28;20459;-70
2022/06/08 07:19:55;;;;;;;1.40;1.20;;;18.70;98.00;;;;;;5034870;28;20454;-69
2022/06/08 07:22:22;;;;;;;1.27;1.20;;;18.70;98.00;;;;;;5034847;28;20856;-69
2022/06/08 07:24:49;;;;;;;1.53;1.30;;;18.80;98.00;;;;;;5033664;28;20454;-70
2022/06/08 07:27:17;;;;;;;1.67;1.30;;;18.70;98.00;;;;;;5034640;28;20457;-69
2022/06/08 07:29:46;;;;;;;1.27;1.27;;;18.80;98.00;;;;;;5034735;28;20458;-69
2022/06/08 07:32:13;;;;;;;1.53;1.33;;;19.00;98.00;;;;;;5037034;28;20818;-69
2022/06/08 07:34:40;;;;;;;1.40;1.20;;;19.10;98.00;;;;;;5031492;28;20532;-69
2022/06/08 07:37:08;;;;;;;1.80;1.50;;;19.00;98.00;;;;;;5031480;28;20451;-69
2022/06/08 07:39:36;;;;;;;1.20;1.10;;;19.20;98.00;;;;;;5030315;28;20549;-69
2022/06/08 07:42:04;;;;;;;1.20;1.10;;;19.20;98.00;;;;;;5031171;28;20454;-69
2022/06/08 07:44:31;;;;;;;1.53;1.43;;;19.30;98.00;;;;;;5031205;28;20459;-69
2022/06/08 07:47:00;;;;;;;2.43;1.70;;;19.30;98.00;;;;;;5031095;28;20569;-69
2022/06/08 07:49:39;;;;;;;5.33;1.73;;;19.30;98.00;;;;;;5028116;28;20467;-70
2022/06/08 07:52:08;;;;;;;1.47;1.20;;;19.40;98.00;;;;;;5031288;28;20466;-70
2022/06/08 07:54:35;;;;;;;1.60;1.40;;;19.50;98.00;;;;;;5031304;28;20478;-69
2022/06/08 07:57:03;;;;;;;1.80;1.57;;;19.60;98.00;;;;;;5030561;28;20458;-70
2022/06/08 07:59:33;;;;;;;1.63;1.50;;;19.60;98.00;;;;;;5031190;28;20470;-70
2022/06/08 08:02:02;;;;;;;1.40;1.33;;;19.60;98.00;;;;;;5031082;28;20470;-71
2022/06/08 08:04:29;;;;;;;3.00;1.40;;;19.70;98.00;;;;;;5030952;28;20831;-72
2022/06/08 08:06:56;;;;;;;1.40;1.30;;;19.90;98.00;;;;;;5031044;28;20537;-73
2022/06/08 08:09:23;;;;;;;3.20;1.70;;;20.10;98.00;;;;;;5031044;28;20451;-72
2022/06/08 08:11:55;;;;;;;1.53;1.20;;;20.10;98.00;;;;;;5029818;28;20478;-70
2022/06/08 08:14:24;;;;;;;4.43;1.87;;;20.10;98.00;;;;;;5031007;28;20458;-70
2022/06/08 08:16:53;;;;;;;1.60;1.50;;;20.00;98.00;;;;;;5031033;28;20467;-71
2022/06/08 08:19:24;;;;;;;1.40;1.33;;;20.10;98.00;;;;;;5030142;28;21352;-71
2022/06/08 08:21:52;;;;;;;1.30;1.20;;;20.10;98.00;;;;;;5023089;28;20463;-70
2022/06/08 08:24:19;;;;;;;1.40;1.27;;;20.00;98.00;;;;;;5030462;28;20470;-72
2022/06/08 08:26:49;;;;;;;2.13;1.47;;;20.10;98.00;;;;;;5029364;28;20455;-71
2022/06/08 08:29:17;;;;;;;1.60;1.50;;;20.20;98.00;;;;;;5022303;28;20466;-72
2022/06/08 08:31:44;;;;;;;3.43;1.70;;;20.40;98.00;;;;;;5030775;28;20475;-72
2022/06/08 08:34:11;;;;;;;1.20;1.20;;;20.60;98.00;;;;;;5030639;28;20468;-71
2022/06/08 08:36:40;;;;;;;1.40;1.20;;;20.60;98.00;;;;;;5030466;28;20495;-72
2022/06/08 08:39:07;;;;;;;1.37;1.33;;;20.70;98.00;;;;;;5030411;28;20459;-72
2022/06/08 08:44:32;;;;;;;1.67;1.30;;;20.90;98.00;;;;;;5024557;28;20521;-72
2022/06/08 08:47:11;;;;;;;1.30;1.30;;;21.00;98.00;;;;;;5030412;28;20457;-71
2022/06/08 08:49:45;;;;;;;1.83;1.40;;;21.00;98.00;;;;;;5025896;28;20473;-71
2022/06/08 08:52:22;;;;;;;2.17;1.80;;;21.00;98.00;;;;;;5032119;28;20461;-71
2022/06/08 08:54:57;;;;;;;3.10;1.60;;;21.10;98.00;;;;;;5029786;28;20492;-69
2022/06/08 08:57:32;;;;;;;1.30;1.30;;;21.10;98.00;;;;;;5030056;28;20471;-72
2022/06/08 09:00:02;;;;;;;1.50;1.40;;;21.10;98.00;;;;;;5029715;28;20466;-69
2022/06/08 09:05:19;;;;;;;1.40;1.33;;;20.90;98.00;;;;;;5023293;28;21113;-69
2022/06/08 09:07:48;;;;;;;2.63;1.60;;;20.70;98.00;;;;;;5028911;28;20478;-70
2022/06/08 09:10:22;;;;;;;1.73;1.53;;;20.80;98.00;;;;;;5029675;28;20461;-71
2022/06/08 09:12:50;;;;;;;1.40;1.27;;;21.00;98.00;;;;;;5029564;28;20972;-72
2022/06/08 09:15:41;;;;;;;1.63;1.33;;;21.20;98.00;;;;;;5029704;28;20491;-70
2022/06/08 09:18:19;;;;;;;1.20;1.17;;;21.40;98.00;;;;;;5029761;28;20512;-71
2022/06/08 09:20:46;;;;;;;2.70;1.40;;;21.40;98.00;;;;;;5030211;28;20462;-70
2022/06/08 09:23:32;;;;;;;1.50;1.23;;;21.60;98.00;;;;;;5029097;28;20459;-70
2022/06/08 09:26:10;;;;;;;1.43;1.30;;;21.70;98.00;;;;;;5029253;28;20823;-67
2022/06/08 09:28:38;;;;;;;1.40;1.40;;;21.80;98.00;;;;;;5029117;28;20478;-69
2022/06/08 09:31:06;;;;;;;1.67;1.27;;;21.90;98.00;;;;;;5027919;28;20463;-68
2022/06/08 09:33:37;;;;;;;1.60;1.30;;;21.90;98.00;;;;;;5029272;28;20462;-69
2022/06/08 09:36:06;;;;;;;2.53;1.50;;;22.00;98.00;;;;;;5027856;28;20494;-69
2022/06/08 09:38:40;;;;;;;1.40;1.40;;;22.20;98.00;;;;;;5036198;28;20489;-69
2022/06/08 09:41:17;;;;;;;1.63;1.40;;;22.50;98.00;;;;;;5028653;28;20489;-68
2022/06/08 09:44:16;;;;;;;1.47;1.23;;;22.70;98.00;;;;;;5027703;28;20459;-68
2022/06/08 09:53:02;;;;;;;1.50;1.30;;;22.90;95.00;;;;;;5022151;28;20498;-68
2022/06/08 09:55:53;;;;;;;1.20;1.20;;;22.80;94.70;;;;;;5027869;28;21000;-68
2022/06/08 09:58:34;;;;;;;1.53;1.27;;;22.80;91.40;;;;;;5022318;28;20940;-68
2022/06/08 10:01:11;;;;;;;1.40;1.10;;;22.90;94.70;;;;;;5027642;28;20868;-68
2022/06/08 10:03:57;;;;;;;1.50;1.20;;;22.90;93.10;;;;;;5028679;28;20960;-68
2022/06/08 10:06:31;;;;;;;1.57;1.40;;;23.20;96.00;;;;;;5029007;28;20557;-67
2022/06/08 10:09:08;;;;;;;1.40;1.23;;;23.50;95.60;;;;;;5028720;28;20451;-69
2022/06/08 10:11:43;;;;;;;1.63;1.37;;;23.70;93.30;;;;;;5028749;28;20477;-68
2022/06/08 10:14:25;;;;;;;1.30;1.27;;;23.80;91.10;;;;;;5020185;28;20849;-68
2022/06/08 10:17:16;;;;;;;1.40;1.33;;;24.00;90.50;;;;;;5028763;28;20495;-68
2022/06/08 10:19:54;;;;;;;2.03;1.60;;;24.30;91.10;;;;;;5028642;28;20486;-69
2022/06/08 10:22:27;;;;;;;1.40;1.30;;;24.50;86.40;;;;;;5027794;28;20462;-68
2022/06/08 10:25:00;;;;;;;1.90;1.40;;;24.70;88.00;;;;;;5028710;28;20618;-68
2022/06/08 10:27:35;;;;;;;1.60;1.37;;;24.80;87.30;;;;;;5028822;28;20457;-69
2022/06/08 10:30:14;;;;;;;1.20;1.10;;;24.80;85.20;;;;;;5028628;28;20964;-68
2022/06/08 10:32:47;;;;;;;1.67;1.50;;;24.30;79.80;;;;;;5028860;28;20470;-68
2022/06/08 10:35:28;;;;;;;1.53;1.33;;;24.00;81.90;;;;;;5027262;28;20486;-68
2022/06/08 10:37:56;;;;;;;1.70;1.30;;;23.60;84.80;;;;;;5028247;28;20957;-67
2022/06/08 10:40:26;;;;;;;1.70;1.30;;;23.70;85.30;;;;;;5028622;28;20463;-67
2022/06/08 10:42:55;;;;;;;3.60;1.43;;;23.80;86.30;;;;;;5028332;28;20481;-67
2022/06/08 10:45:45;;;;;;;1.50;1.30;;;23.90;83.50;;;;;;5027842;28;20447;-68
2022/06/08 10:48:35;;;;;;;1.30;1.30;;;23.80;87.40;;;;;;5028436;28;20740;-67
2022/06/08 10:51:41;;;;;;;1.63;1.20;;;24.00;85.80;;;;;;5022296;28;20485;-68
2022/06/08 10:54:55;;;;;;;1.97;1.40;;;24.30;84.00;;;;;;4966829;28;20480;-67
2022/06/08 10:57:49;;;;;;;1.20;1.20;;;24.20;85.10;;;;;;5028372;28;20458;-67
2022/06/08 11:01:04;;;;;;;1.37;1.37;;;24.20;82.40;;;;;;5028141;28;20455;-67
2022/06/08 11:03:54;;;;;;;1.30;1.23;;;24.20;83.50;;;;;;5028226;28;20490;-67
2022/06/08 11:07:03;;;;;;;1.37;1.33;;;24.50;79.50;;;;;;5022646;28;21025;-67
2022/06/08 11:09:54;;;;;;;1.97;1.30;;;24.90;81.70;;;;;;5028260;28;20466;-67
2022/06/08 11:12:50;;;;;;;1.53;1.40;;;25.20;79.20;;;;;;5025716;28;20469;-67
2022/06/08 11:15:52;;;;;;;1.30;1.30;;;25.60;81.20;;;;;;5028211;28;20454;-68
2022/06/08 11:18:27;;;;;;;1.40;1.20;;;25.80;76.60;;;;;;5028273;28;20476;-67
2022/06/08 11:21:22;;;;;;;1.23;1.20;;;25.70;73.30;;;;;;5019154;28;20454;-68
2022/06/08 11:23:54;;;;;;;2.27;1.53;;;25.70;74.90;;;;;;5028510;28;20458;-68
2022/06/08 11:26:43;;;;;;;3.27;1.43;;;25.80;78.70;;;;;;5030983;28;20458;-68
2022/06/08 11:29:42;;;;;;;1.70;1.40;;;26.00;77.30;;;;;;5031645;28;20976;-67
2022/06/08 11:32:28;;;;;;;3.30;1.47;;;26.00;76.30;;;;;;5024592;28;20494;-68
2022/06/08 11:35:33;;;;;;;2.43;1.50;;;26.10;78.10;;;;;;5031658;28;20459;-68
2022/06/08 11:38:15;;;;;;;1.60;1.40;;;26.30;76.80;;;;;;5021797;28;20458;-69
2022/06/08 11:40:44;;;;;;;1.80;1.50;;;26.30;78.00;;;;;;5023753;28;20454;-68
2022/06/08 11:43:29;;;;;;;1.50;1.40;;;26.30;73.90;;;;;;5031415;28;20455;-67
2022/06/08 11:45:58;;;;;;;1.93;1.30;;;26.60;75.60;;;;;;5031257;28;20458;-68
2022/06/08 11:48:29;;;;;;;2.00;1.40;;;26.50;75.20;;;;;;5031305;28;20954;-67
2022/06/08 11:50:58;;;;;;;1.60;1.30;;;26.50;78.50;;;;;;5029878;28;20459;-68
2022/06/08 11:53:29;;;;;;;1.67;1.50;;;26.50;79.40;;;;;;5031202;28;20558;-68
2022/06/08 11:56:07;;;;;;;1.80;1.37;;;26.40;81.10;;;;;;5031046;28;20548;-68
2022/06/08 11:58:37;;;;;;;1.30;1.30;;;26.50;76.40;;;;;;5031262;28;20775;-67
2022/06/08 12:01:11;;;;;;;1.50;1.30;;;26.20;75.90;;;;;;5031331;28;20465;-69
2022/06/08 12:03:44;;;;;;;1.70;1.57;;;26.50;79.00;;;;;;5031311;28;20459;-69
2022/06/08 12:06:19;;;;;;;1.73;1.47;;;26.80;76.80;;;;;;5031216;28;20461;-70
2022/06/08 12:08:49;;;;;;;1.50;1.30;;;27.00;78.50;;;;;;5031024;28;20466;-68
2022/06/08 12:11:19;;;;;;;2.23;1.40;;;27.40;77.20;;;;;;5029386;28;20470;-68
2022/06/08 12:13:58;;;;;;;1.40;1.23;;;27.70;73.50;;;;;;5030950;28;20485;-68
2022/06/08 12:16:30;;;;;;;1.83;1.53;;;27.90;76.20;;;;;;5031181;28;20840;-69
2022/06/08 12:19:04;;;;;;;1.47;1.33;;;28.10;72.10;;;;;;5022862;28;20814;-68
2022/06/08 12:21:36;;;;;;;1.70;1.50;;;27.40;74.20;;;;;;5023593;28;20477;-70
2022/06/08 12:24:07;;;;;;;1.90;1.70;;;26.90;72.40;;;;;;5030947;28;20498;-70
2022/06/08 12:26:41;;;;;;;1.77;1.50;;;26.70;74.00;;;;;;5031304;28;20459;-70
2022/06/08 12:29:27;;;;;;;1.70;1.60;;;27.00;75.60;;;;;;5031171;28;20523;-70
2022/06/08 12:32:17;;;;;;;1.30;1.20;;;27.60;75.90;;;;;;5030983;28;20450;-70
2022/06/08 12:34:51;;;;;;;3.67;1.60;;;28.00;76.20;;;;;;5030860;28;20895;-69
2022/06/08 12:37:43;;;;;;;1.60;1.40;;;28.50;73.30;;;;;;5030063;28;20499;-71
2022/06/08 12:40:29;;;;;;;1.70;1.60;;;28.80;73.60;;;;;;5028591;28;21103;-71
2022/06/08 12:43:01;;;;;;;2.00;1.63;;;29.20;72.30;;;;;;5032824;28;20549;-70
2022/06/08 12:45:33;;;;;;;2.40;1.53;;;29.40;71.00;;;;;;5032615;28;20972;-70
2022/06/08 12:48:02;;;;;;;1.40;1.30;;;29.70;72.50;;;;;;5032741;28;20455;-71
2022/06/08 12:50:31;;;;;;;1.90;1.43;;;28.90;69.80;;;;;;5032536;28;20496;-70
2022/06/08 12:53:02;;;;;;;1.37;1.37;;;28.30;70.60;;;;;;5032781;28;20965;-71
2022/06/08 12:55:33;;;;;;;5.93;1.70;;;27.80;74.10;;;;;;5032642;28;20726;-70
2022/06/08 12:58:00;;;;;;;1.43;1.43;;;27.60;75.60;;;;;;5032548;28;20455;-70
2022/06/08 13:00:30;;;;;;;1.57;1.50;;;27.30;75.80;;;;;;5031373;28;20469;-70
2022/06/08 13:03:00;;;;;;;2.20;1.70;;;27.10;74.10;;;;;;5031340;28;20455;-70
2022/06/08 13:05:30;;;;;;;1.30;1.30;;;27.00;76.20;;;;;;5032245;28;20474;-71
2022/06/08 13:08:00;;;;;;;1.47;1.33;;;27.10;75.80;;;;;;5032405;28;20543;-70
2022/06/08 13:10:30;;;;;;;2.97;1.80;;;27.30;75.10;;;;;;5032373;28;20468;-70
2022/06/08 13:13:03;;;;;;;1.60;1.40;;;27.50;75.40;;;;;;5032486;28;20459;-71
2022/06/08 13:15:33;;;;;;;2.10;1.63;;;27.60;77.50;;;;;;5032030;28;20983;-70
2022/06/08 13:18:04;;;;;;;1.83;1.50;;;27.50;75.00;;;;;;5032288;28;20517;-71
2022/06/08 13:20:33;;;;;;;1.53;1.33;;;27.40;74.90;;;;;;5032288;28;20495;-70
2022/06/08 13:23:06;;;;;;;1.93;1.70;;;27.30;74.70;;;;;;5032074;28;20455;-70
2022/06/08 13:25:34;;;;;;;1.57;1.40;;;27.10;75.50;;;;;;5032248;28;20454;-70
2022/06/08 13:28:02;;;;;;;1.30;1.23;;;26.70;76.20;;;;;;5030897;28;20524;-70
2022/06/08 13:30:33;;;;;;;1.20;1.20;;;26.70;78.00;;;;;;5032096;28;20455;-70